Time;durP1;ratioP1;P1;durP2;ratioP2;P2;SDS_P1;SDS_P2;PMS_P1;PMS_P2;Temp;Humidity;BMP_temperature;BMP_pressure;BME280_temperature;BME280_humidity;BME280_pressure;Samples;Min_cycle;Max_cycle;Signal;HPM_P1;HPM_P2
2022/11/02 00:02:01;;;;;;;15.18;5.45;;;9.50;99.90;;;;;;4941590;28;20043;-55
2022/11/02 00:04:28;;;;;;;7.78;4.50;;;9.50;99.90;;;;;;4942378;28;20045;-56
2022/11/02 00:06:54;;;;;;;12.23;4.80;;;9.60;99.90;;;;;;4939331;28;20049;-57
2022/11/02 00:09:21;;;;;;;10.60;5.50;;;9.60;99.90;;;;;;4941249;28;20542;-53
2022/11/02 00:11:47;;;;;;;7.88;4.47;;;9.60;99.90;;;;;;4940635;28;20827;-56
2022/11/02 00:14:14;;;;;;;11.10;4.30;;;9.60;99.90;;;;;;4942367;28;20062;-56
2022/11/02 00:16:41;;;;;;;;;;;9.60;99.90;;;;;;4943457;28;20078;-56
2022/11/02 00:19:08;;;;;;;14.43;4.43;;;9.60;99.90;;;;;;4941145;28;19953;-56
2022/11/02 00:21:36;;;;;;;10.60;5.07;;;9.70;99.90;;;;;;4942785;28;20287;-56
2022/11/02 00:24:04;;;;;;;10.75;3.83;;;9.60;99.90;;;;;;4943180;28;20049;-56
2022/11/02 00:26:33;;;;;;;7.75;4.25;;;9.70;99.90;;;;;;4941718;28;20057;-56
2022/11/02 00:29:00;;;;;;;8.30;4.13;;;9.70;99.90;;;;;;4942040;28;20054;-55
2022/11/02 00:31:27;;;;;;;;;;;9.60;99.90;;;;;;4941668;28;20524;-55
2022/11/02 00:33:53;;;;;;;10.77;5.65;;;9.70;99.90;;;;;;4950386;28;19933;-56
2022/11/02 00:36:23;;;;;;;11.18;4.28;;;9.70;99.90;;;;;;4956290;28;20463;-55
2022/11/02 00:38:50;;;;;;;11.68;4.40;;;9.70;99.90;;;;;;4940046;28;20043;-56
2022/11/02 00:41:18;;;;;;;6.57;4.03;;;9.70;99.90;;;;;;4941600;28;20106;-56
2022/11/02 00:43:45;;;;;;;9.18;4.70;;;9.70;99.90;;;;;;4938313;28;20458;-56
2022/11/02 00:46:13;;;;;;;11.48;4.30;;;9.70;99.90;;;;;;4958849;28;20545;-54
2022/11/02 00:48:40;;;;;;;8.48;3.85;;;9.70;99.90;;;;;;4954660;28;20573;-55
2022/11/02 00:51:08;;;;;;;6.28;4.00;;;9.70;99.90;;;;;;4938404;28;20046;-56
2022/11/02 00:53:35;;;;;;;;;;;9.80;99.90;;;;;;4956998;28;20079;-57
2022/11/02 00:56:02;;;;;;;7.47;3.67;;;9.80;99.90;;;;;;4956135;28;19926;-55
2022/11/02 00:58:29;;;;;;;;;;;9.80;99.90;;;;;;4950571;28;20336;-56
2022/11/02 01:00:56;;;;;;;8.93;3.90;;;9.80;99.90;;;;;;4956157;28;20020;-56
2022/11/02 01:03:24;;;;;;;8.18;3.90;;;9.80;99.90;;;;;;4956918;28;20564;-56
2022/11/02 01:05:51;;;;;;;8.98;4.00;;;9.90;99.90;;;;;;4943761;28;20334;-55
2022/11/02 01:08:17;;;;;;;;;;;9.90;99.90;;;;;;4941118;28;20043;-57
2022/11/02 01:10:44;;;;;;;6.57;3.92;;;9.90;99.90;;;;;;4941793;28;20021;-57
2022/11/02 01:13:15;;;;;;;8.30;3.80;;;9.90;99.90;;;;;;4939901;28;20039;-57
2022/11/02 01:15:42;;;;;;;5.70;3.75;;;10.00;99.90;;;;;;4952858;28;20050;-56
2022/11/02 01:18:09;;;;;;;10.35;4.60;;;10.00;99.90;;;;;;4942050;28;20333;-56
2022/11/02 01:20:35;;;;;;;;;;;10.00;99.90;;;;;;4942028;28;20043;-53
2022/11/02 01:23:02;;;;;;;11.07;4.53;;;10.00;99.90;;;;;;4939387;28;19953;-55
2022/11/02 01:25:29;;;;;;;7.90;3.85;;;10.00;99.90;;;;;;4954611;28;20047;-54
2022/11/02 01:27:55;;;;;;;4.68;3.35;;;10.00;99.90;;;;;;4944774;28;20098;-54
2022/11/02 01:30:22;;;;;;;5.70;4.32;;;10.00;99.90;;;;;;4940317;28;20034;-56
2022/11/02 01:32:49;;;;;;;11.40;5.47;;;10.00;99.90;;;;;;4954212;28;20170;-53
2022/11/02 01:35:15;;;;;;;8.90;5.00;;;10.00;99.90;;;;;;4944273;28;20049;-54
2022/11/02 01:37:42;;;;;;;;;;;10.00;99.90;;;;;;4942291;28;20035;-56
2022/11/02 01:40:09;;;;;;;10.40;4.25;;;10.00;99.90;;;;;;4940820;28;20364;-53
2022/11/02 01:42:36;;;;;;;8.23;4.30;;;10.00;99.90;;;;;;4942130;28;20046;-55
2022/11/02 01:45:03;;;;;;;7.15;4.43;;;10.00;99.90;;;;;;4937807;28;20503;-55
2022/11/02 01:47:34;;;;;;;10.63;4.18;;;10.00;99.90;;;;;;4957106;28;20519;-57
2022/11/02 01:50:07;;;;;;;7.65;4.10;;;10.00;99.90;;;;;;4938890;28;20531;-54
2022/11/02 01:52:37;;;;;;;8.63;4.32;;;10.00;99.90;;;;;;4939710;28;20047;-54
2022/11/02 01:55:06;;;;;;;8.57;5.05;;;10.00;99.90;;;;;;4923685;28;20270;-53
2022/11/02 01:57:35;;;;;;;9.60;4.70;;;10.00;99.90;;;;;;4940245;28;20069;-56
2022/11/02 02:00:07;;;;;;;8.40;4.00;;;10.00;99.90;;;;;;4955315;28;20127;-56
2022/11/02 02:02:53;;;;;;;6.55;3.72;;;10.00;99.90;;;;;;4940384;28;20053;-56
2022/11/02 02:05:23;;;;;;;12.20;5.20;;;10.00;99.90;;;;;;4941592;28;20054;-57
2022/11/02 02:07:51;;;;;;;7.55;4.22;;;10.00;99.90;;;;;;4956438;28;20575;-55
2022/11/02 02:10:18;;;;;;;7.00;4.15;;;10.00;99.90;;;;;;4939473;28;20802;-55
2022/11/02 02:12:46;;;;;;;12.75;5.85;;;10.10;99.90;;;;;;4936436;28;20043;-56
2022/11/02 02:15:16;;;;;;;8.05;5.25;;;10.10;99.90;;;;;;4940971;28;20047;-55
2022/11/02 02:17:58;;;;;;;15.05;4.68;;;10.10;99.90;;;;;;4944724;28;20042;-55
2022/11/02 02:20:43;;;;;;;9.40;4.80;;;10.10;99.90;;;;;;4952918;28;20058;-56
2022/11/02 02:23:25;;;;;;;8.63;4.93;;;10.20;99.90;;;;;;4942499;28;20081;-53
2022/11/02 02:26:11;;;;;;;10.00;5.38;;;10.20;99.90;;;;;;4943990;28;20055;-56
2022/11/02 02:28:51;;;;;;;8.30;4.93;;;10.20;99.90;;;;;;4942909;28;20150;-57
2022/11/02 02:31:41;;;;;;;13.80;5.72;;;10.20;99.90;;;;;;4943378;28;20039;-55
2022/11/02 02:34:20;;;;;;;10.52;5.47;;;10.20;99.90;;;;;;4942681;28;20481;-55
2022/11/02 02:37:28;;;;;;;15.23;5.32;;;10.20;99.90;;;;;;4944471;28;20058;-56
2022/11/02 02:40:00;;;;;;;8.85;4.90;;;10.30;99.90;;;;;;4926497;28;20337;-55
2022/11/02 02:42:46;;;;;;;9.25;5.45;;;10.30;99.90;;;;;;4943011;28;20054;-54
2022/11/02 02:45:44;;;;;;;11.27;5.68;;;10.30;99.90;;;;;;4958995;28;20600;-55
2022/11/02 02:48:18;;;;;;;10.50;5.80;;;10.30;99.90;;;;;;4941189;28;20053;-56
2022/11/02 02:50:56;;;;;;;15.40;5.32;;;10.30;99.90;;;;;;4957698;28;20047;-54
2022/11/02 02:53:32;;;;;;;15.23;5.10;;;10.20;99.90;;;;;;4944944;28;20053;-56
2022/11/02 02:56:02;;;;;;;20.30;5.25;;;10.30;99.90;;;;;;4943223;28;20046;-55
2022/11/02 02:58:35;;;;;;;9.15;4.70;;;10.20;99.90;;;;;;4940370;28;20386;-53
2022/11/02 03:01:04;;;;;;;5.72;4.32;;;10.20;99.90;;;;;;4940037;28;20133;-56
2022/11/02 03:03:34;;;;;;;9.48;5.00;;;10.20;99.90;;;;;;4941483;28;20047;-56
2022/11/02 03:06:31;;;;;;;6.25;3.67;;;10.20;99.90;;;;;;4959254;28;20055;-55
2022/11/02 03:09:23;;;;;;;8.75;4.32;;;10.30;99.90;;;;;;4942441;28;20256;-55
2022/11/02 03:12:03;;;;;;;5.45;4.90;;;10.20;99.90;;;;;;4955918;28;20062;-55
2022/11/02 03:14:39;;;;;;;13.93;4.43;;;10.30;99.90;;;;;;4941585;28;20068;-56
2022/11/02 03:17:27;;;;;;;10.70;5.15;;;10.30;99.90;;;;;;4943333;28;20535;-55
2022/11/02 03:20:20;;;;;;;7.90;4.55;;;10.30;99.90;;;;;;4944203;28;20054;-56
2022/11/02 03:23:29;;;;;;;11.20;5.75;;;10.30;99.90;;;;;;4954382;28;20074;-55
2022/11/02 03:26:03;;;;;;;18.05;5.05;;;10.40;99.90;;;;;;4938852;28;20063;-56
2022/11/02 03:28:47;;;;;;;7.28;5.05;;;10.40;99.90;;;;;;4956656;28;20170;-54
2022/11/02 03:31:29;;;;;;;10.20;4.68;;;10.40;99.90;;;;;;4943389;28;20070;-56
2022/11/02 03:34:15;;;;;;;12.00;4.55;;;10.40;99.90;;;;;;4957049;28;20046;-55
2022/11/02 03:36:52;;;;;;;7.55;5.18;;;10.40;99.90;;;;;;4945664;28;20517;-55
2022/11/02 03:39:29;;;;;;;7.75;5.13;;;10.40;99.90;;;;;;4958247;28;20075;-56
2022/11/02 03:41:59;;;;;;;8.75;5.22;;;10.50;99.90;;;;;;4950590;28;20130;-56
2022/11/02 03:44:29;;;;;;;9.55;5.18;;;10.50;99.90;;;;;;4940187;28;20113;-56
2022/11/02 03:46:59;;;;;;;12.32;5.85;;;10.50;99.90;;;;;;4956868;28;20449;-55
2022/11/02 03:49:28;;;;;;;16.30;6.38;;;10.50;99.90;;;;;;4956344;28;20301;-54
2022/11/02 03:52:00;;;;;;;10.82;6.85;;;10.50;99.90;;;;;;4951389;28;20450;-56
2022/11/02 03:54:42;;;;;;;12.98;5.63;;;10.50;99.90;;;;;;4957225;28;20520;-54
2022/11/02 03:57:15;;;;;;;8.27;4.53;;;10.50;99.90;;;;;;4957204;28;20085;-55
2022/11/02 03:59:43;;;;;;;17.98;5.80;;;10.50;99.90;;;;;;4943850;28;20043;-57
2022/11/02 04:02:12;;;;;;;9.50;4.15;;;10.50;99.90;;;;;;4940814;28;20132;-56
2022/11/02 04:04:50;;;;;;;12.82;6.28;;;10.50;99.90;;;;;;4941251;28;20069;-53
2022/11/02 04:08:19;;;;;;;12.10;5.88;;;10.50;99.90;;;;;;4958318;28;20047;-54
2022/11/02 04:10:25;;;;;;;7.07;4.85;;;10.50;99.90;;;;;;4941735;28;20153;-55
2022/11/02 04:15:37;;;;;;;12.45;5.10;;;10.50;99.90;;;;;;4939755;28;19934;-56
2022/11/02 04:20:50;;;;;;;10.35;5.15;;;10.50;99.90;;;;;;4939621;28;19926;-54
2022/11/02 04:26:05;;;;;;;11.43;4.57;;;10.50;99.90;;;;;;4956480;28;20371;-53
2022/11/02 04:28:42;;;;;;;10.00;5.65;;;10.60;99.90;;;;;;4940086;28;20390;-55
2022/11/02 04:31:11;;;;;;;;;;;10.60;99.90;;;;;;4940821;28;20138;-57
2022/11/02 04:33:40;;;;;;;9.65;3.83;;;10.60;99.90;;;;;;4951634;28;20612;-55
2022/11/02 04:36:13;;;;;;;10.23;4.55;;;10.60;99.90;;;;;;4956219;28;20247;-57
2022/11/02 04:38:40;;;;;;;12.88;5.10;;;10.60;99.90;;;;;;4943663;28;20107;-55
2022/11/02 04:44:13;;;;;;;5.53;3.42;;;10.60;99.90;;;;;;4941600;28;20501;-55
2022/11/02 04:46:43;;;;;;;12.30;3.58;;;10.60;99.90;;;;;;4957624;28;20046;-56
2022/11/02 04:49:13;;;;;;;5.97;3.28;;;10.60;99.90;;;;;;4939898;28;20170;-56
2022/11/02 04:51:40;;;;;;;14.82;4.72;;;10.60;99.90;;;;;;4941118;28;20629;-55
2022/11/02 04:54:14;;;;;;;14.38;4.22;;;10.60;99.90;;;;;;4940946;28;20461;-55
2022/11/02 04:56:42;;;;;;;14.02;3.85;;;10.70;99.90;;;;;;4941131;28;20572;-55
2022/11/02 04:59:10;;;;;;;11.40;4.40;;;10.70;99.90;;;;;;4943524;28;20047;-56
2022/11/02 05:01:37;;;;;;;6.32;3.03;;;10.70;99.90;;;;;;4943130;28;20049;-56
2022/11/02 05:04:04;;;;;;;11.73;3.78;;;10.70;99.90;;;;;;4938681;28;20047;-55
2022/11/02 05:06:34;;;;;;;5.80;3.58;;;10.70;99.90;;;;;;4956107;28;20686;-54
2022/11/02 05:09:01;;;;;;;11.52;3.85;;;10.70;99.90;;;;;;4956435;28;20506;-54
2022/11/02 05:11:30;;;;;;;12.23;3.97;;;10.70;99.90;;;;;;4958225;28;20042;-55
2022/11/02 05:13:57;;;;;;;18.58;4.30;;;10.70;99.90;;;;;;4939100;28;20051;-54
2022/11/02 05:16:23;;;;;;;;;;;10.70;99.90;;;;;;4941159;28;20053;-55
2022/11/02 05:18:52;;;;;;;8.43;3.80;;;10.70;99.90;;;;;;4939426;28;20241;-55
2022/11/02 05:21:21;;;;;;;5.43;3.75;;;10.80;99.90;;;;;;4954514;28;20056;-55
2022/11/02 05:23:49;;;;;;;9.27;4.43;;;10.80;99.90;;;;;;4938341;28;20133;-55
2022/11/02 05:26:16;;;;;;;11.50;3.80;;;10.80;99.90;;;;;;4953859;28;20265;-55
2022/11/02 05:28:46;;;;;;;8.20;3.53;;;10.80;99.90;;;;;;4957111;28;20058;-55
2022/11/02 05:31:12;;;;;;;9.45;3.53;;;10.80;99.90;;;;;;4938656;28;20333;-56
2022/11/02 05:33:40;;;;;;;8.07;4.05;;;10.80;99.90;;;;;;4938954;28;20229;-56
2022/11/02 05:36:12;;;;;;;11.60;4.32;;;10.80;99.90;;;;;;4939701;28;20135;-55
2022/11/02 05:38:42;;;;;;;10.20;3.97;;;10.80;99.90;;;;;;4955756;28;20436;-56
2022/11/02 05:41:09;;;;;;;9.93;4.35;;;10.80;99.90;;;;;;4942666;28;20047;-57
2022/11/02 05:43:38;;;;;;;10.55;3.90;;;10.80;99.90;;;;;;4955269;28;20051;-55
2022/11/02 05:46:08;;;;;;;12.80;4.22;;;10.80;99.90;;;;;;4939419;28;20547;-55
2022/11/02 05:48:35;;;;;;;8.50;4.07;;;10.80;99.90;;;;;;4939169;28;20504;-54
2022/11/02 05:51:03;;;;;;;8.43;3.30;;;10.80;99.90;;;;;;4938423;28;20051;-55
2022/11/02 05:53:32;;;;;;;7.60;3.05;;;10.80;99.90;;;;;;4940691;28;20039;-56
2022/11/02 05:56:00;;;;;;;5.53;3.00;;;10.80;99.90;;;;;;4939619;28;20238;-56
2022/11/02 05:58:28;;;;;;;6.22;4.07;;;10.80;99.90;;;;;;4939628;28;20247;-56
2022/11/02 06:00:58;;;;;;;4.70;2.90;;;10.90;99.90;;;;;;4939433;28;20521;-55
2022/11/02 06:03:25;;;;;;;7.43;3.33;;;10.90;99.90;;;;;;4940968;28;20422;-55
2022/11/02 06:06:03;;;;;;;6.70;4.15;;;10.90;99.90;;;;;;4939481;28;20051;-56
2022/11/02 06:08:34;;;;;;;6.07;3.45;;;10.90;99.90;;;;;;4941718;28;20082;-54
2022/11/02 06:11:11;;;;;;;9.93;4.75;;;10.90;99.90;;;;;;4942468;28;20134;-55
2022/11/02 06:13:40;;;;;;;13.27;5.65;;;10.90;99.90;;;;;;4953791;28;20078;-56
2022/11/02 06:16:09;;;;;;;11.82;4.15;;;10.90;99.90;;;;;;4942173;28;20077;-56
2022/11/02 06:18:36;;;;;;;4.80;3.67;;;10.90;99.90;;;;;;4939332;28;20570;-55
2022/11/02 06:21:03;;;;;;;4.95;3.25;;;10.90;99.90;;;;;;4938741;28;20283;-54
2022/11/02 06:23:30;;;;;;;15.45;5.13;;;10.90;99.90;;;;;;4940477;28;20271;-55
2022/11/02 06:25:58;;;;;;;;;;;10.90;99.90;;;;;;4937554;28;20489;-54
2022/11/02 06:28:25;;;;;;;13.05;5.10;;;10.90;99.90;;;;;;4942219;28;19925;-56
2022/11/02 06:30:53;;;;;;;7.57;4.78;;;10.90;99.90;;;;;;4956160;28;20042;-55
2022/11/02 06:33:20;;;;;;;;;;;10.90;99.90;;;;;;4938976;28;20332;-55
2022/11/02 06:35:51;;;;;;;11.82;4.15;;;10.90;99.90;;;;;;4938835;28;20024;-57
2022/11/02 06:38:17;;;;;;;7.43;3.83;;;10.90;99.90;;;;;;4939409;28;20110;-55
2022/11/02 06:40:57;;;;;;;10.55;3.53;;;10.90;99.90;;;;;;4941141;28;20072;-56
2022/11/02 06:43:24;;;;;;;15.73;3.97;;;10.90;99.90;;;;;;4940603;28;20428;-53
2022/11/02 06:45:58;;;;;;;16.42;4.28;;;10.90;99.90;;;;;;4955133;28;20426;-51
2022/11/02 06:48:26;;;;;;;9.25;4.30;;;10.90;99.90;;;;;;4938893;28;20043;-54
2022/11/02 06:51:00;;;;;;;20.30;4.28;;;10.90;99.90;;;;;;4942520;28;20051;-53
2022/11/02 06:53:27;;;;;;;9.90;4.45;;;10.90;99.90;;;;;;4938833;28;20062;-55
2022/11/02 06:55:55;;;;;;;10.10;5.13;;;10.90;99.90;;;;;;4937273;28;20402;-57
2022/11/02 06:58:23;;;;;;;9.23;4.00;;;11.00;99.90;;;;;;4953560;28;20129;-54
2022/11/02 07:00:55;;;;;;;8.10;3.65;;;11.00;99.90;;;;;;4940146;28;20150;-53
2022/11/02 07:03:22;;;;;;;6.47;3.13;;;11.00;99.90;;;;;;4940012;28;20055;-53
2022/11/02 07:05:50;;;;;;;;;;;11.10;99.90;;;;;;4940925;28;20133;-55
2022/11/02 07:08:18;;;;;;;8.07;3.13;;;11.10;99.90;;;;;;4942125;28;19972;-57
2022/11/02 07:10:45;;;;;;;9.15;4.50;;;11.10;99.90;;;;;;4943070;28;20049;-55
2022/11/02 07:13:12;;;;;;;12.55;4.90;;;11.20;99.90;;;;;;4941684;28;20129;-55
2022/11/02 07:15:39;;;;;;;6.65;3.63;;;11.20;99.90;;;;;;4940648;28;20047;-59
2022/11/02 07:18:07;;;;;;;11.02;4.93;;;11.20;99.90;;;;;;4945252;28;20705;-56
2022/11/02 07:20:34;;;;;;;8.35;3.90;;;11.20;99.90;;;;;;4942906;28;20565;-58
2022/11/02 07:23:03;;;;;;;8.52;3.88;;;11.30;99.90;;;;;;4944687;28;20144;-58
2022/11/02 07:25:32;;;;;;;12.07;4.80;;;11.30;99.90;;;;;;4943015;28;20048;-56
2022/11/02 07:28:00;;;;;;;8.60;4.25;;;11.30;99.90;;;;;;4945183;28;20077;-57
2022/11/02 07:30:32;;;;;;;8.13;3.80;;;11.30;99.90;;;;;;4942026;28;20049;-54
2022/11/02 07:32:59;;;;;;;7.40;3.70;;;11.30;99.90;;;;;;4940806;28;20043;-55
2022/11/02 07:35:26;;;;;;;5.18;3.88;;;11.30;99.90;;;;;;4945006;28;20062;-57
2022/11/02 07:37:58;;;;;;;5.97;3.42;;;11.40;99.90;;;;;;4939301;28;20338;-55
2022/11/02 07:40:26;;;;;;;6.38;3.25;;;11.40;99.90;;;;;;4943429;28;20130;-57
2022/11/02 07:42:54;;;;;;;7.88;3.45;;;11.40;99.90;;;;;;4940399;28;20200;-56
2022/11/02 07:45:29;;;;;;;7.43;3.83;;;11.50;99.90;;;;;;4942272;28;20058;-58
2022/11/02 07:47:56;;;;;;;13.00;4.22;;;11.50;99.90;;;;;;4942357;28;20054;-58
2022/11/02 07:50:25;;;;;;;6.40;3.38;;;11.40;99.90;;;;;;4939851;28;20046;-51
2022/11/02 07:52:55;;;;;;;6.88;3.35;;;11.50;99.90;;;;;;4943224;28;20143;-58
2022/11/02 07:55:24;;;;;;;7.95;3.20;;;11.50;99.90;;;;;;4941677;28;20529;-57
2022/11/02 07:57:58;;;;;;;4.82;3.30;;;11.50;99.90;;;;;;4940688;28;20034;-58
2022/11/02 08:00:30;;;;;;;6.18;4.00;;;11.50;99.90;;;;;;4958286;28;20675;-57
2022/11/02 08:02:59;;;;;;;21.40;5.18;;;11.50;99.90;;;;;;4939219;28;20051;-55
2022/11/02 08:05:28;;;;;;;8.63;4.93;;;11.60;99.90;;;;;;4943759;28;20417;-56
2022/11/02 08:07:59;;;;;;;7.53;3.95;;;11.60;99.90;;;;;;4941802;28;20799;-55
2022/11/02 08:10:28;;;;;;;13.27;3.70;;;11.60;99.90;;;;;;4944879;28;20233;-54
2022/11/02 08:12:55;;;;;;;12.75;3.80;;;11.60;99.90;;;;;;4941872;28;20058;-54
2022/11/02 08:15:22;;;;;;;17.75;3.65;;;11.70;99.90;;;;;;4942134;28;20564;-54
2022/11/02 08:18:03;;;;;;;11.90;3.90;;;11.70;99.90;;;;;;4934530;28;20065;-54
2022/11/02 08:20:31;;;;;;;9.95;3.72;;;11.70;99.90;;;;;;4943910;28;20453;-52
2022/11/02 08:22:58;;;;;;;9.70;2.80;;;11.70;99.90;;;;;;4942709;28;20469;-55
2022/11/02 08:25:24;;;;;;;;;;;11.80;99.90;;;;;;4956126;28;20127;-55
2022/11/02 08:27:54;;;;;;;9.38;2.88;;;11.80;99.90;;;;;;4941909;28;19926;-54
2022/11/02 08:30:21;;;;;;;7.20;2.58;;;11.90;99.90;;;;;;4943674;28;20128;-55
2022/11/02 08:32:47;;;;;;;10.15;2.50;;;11.80;99.90;;;;;;4938854;28;20519;-54
2022/11/02 08:35:21;;;;;;;10.73;2.63;;;11.90;99.90;;;;;;4942103;28;20066;-54
2022/11/02 08:37:53;;;;;;;;;;;11.90;99.90;;;;;;4939701;28;20043;-55
2022/11/02 08:40:20;;;;;;;7.70;2.78;;;12.00;99.90;;;;;;4941718;28;20237;-54
2022/11/02 08:42:47;;;;;;;9.52;2.70;;;12.00;99.90;;;;;;4944427;28;20057;-60
2022/11/02 08:45:14;;;;;;;;;;;12.00;99.90;;;;;;4942698;28;20352;-62
2022/11/02 08:47:41;;;;;;;9.57;2.35;;;12.00;99.90;;;;;;4949782;28;20277;-63
2022/11/02 08:50:09;;;;;;;16.50;2.78;;;12.00;99.90;;;;;;4942343;28;20110;-61
2022/11/02 08:52:39;;;;;;;9.57;2.70;;;12.00;99.90;;;;;;4936780;28;20043;-63
2022/11/02 08:55:07;;;;;;;11.70;2.40;;;12.00;99.90;;;;;;4942335;28;20333;-52
2022/11/02 08:57:44;;;;;;;4.57;2.20;;;12.00;99.90;;;;;;4940034;28;20163;-54
2022/11/02 09:00:12;;;;;;;11.30;3.95;;;12.00;99.90;;;;;;4940282;28;20043;-54
2022/11/02 09:02:39;;;;;;;8.23;2.28;;;12.00;99.90;;;;;;4936417;28;20114;-55
2022/11/02 09:05:06;;;;;;;11.95;3.22;;;12.00;99.90;;;;;;4937947;28;20044;-55
2022/11/02 09:07:32;;;;;;;11.20;2.38;;;12.00;99.90;;;;;;4944741;28;20043;-54
2022/11/02 09:09:59;;;;;;;11.82;3.03;;;12.00;99.90;;;;;;4955688;28;20628;-53
2022/11/02 09:12:26;;;;;;;9.27;2.05;;;12.00;99.90;;;;;;4941395;28;20426;-53
2022/11/02 09:14:53;;;;;;;7.55;2.45;;;12.00;99.90;;;;;;4937753;28;20075;-55
2022/11/02 09:17:19;;;;;;;;;;;12.00;99.90;;;;;;4939998;28;20051;-52
2022/11/02 09:19:46;;;;;;;5.63;2.58;;;12.00;99.90;;;;;;4943655;28;19932;-54
2022/11/02 09:22:13;;;;;;;;;;;12.00;99.90;;;;;;4940653;28;20051;-55
2022/11/02 09:24:39;;;;;;;10.50;2.30;;;12.00;99.90;;;;;;4939463;28;20472;-54
2022/11/02 09:27:06;;;;;;;7.65;2.42;;;12.00;99.90;;;;;;4941334;28;20552;-53
2022/11/02 09:29:33;;;;;;;7.32;2.40;;;12.10;99.90;;;;;;4941566;28;20043;-56
2022/11/02 09:31:59;;;;;;;;;;;12.00;99.90;;;;;;4941771;28;20039;-53
2022/11/02 09:34:26;;;;;;;11.23;2.58;;;12.10;99.90;;;;;;4942021;28;20131;-53
2022/11/02 09:36:52;;;;;;;;;;;12.10;99.90;;;;;;4939395;28;20051;-52
2022/11/02 09:39:22;;;;;;;7.90;3.30;;;12.20;99.90;;;;;;4939747;28;19926;-52
2022/11/02 09:42:21;;;;;;;4.13;2.22;;;12.20;99.90;;;;;;4941762;28;20051;-51
2022/11/02 09:45:00;;;;;;;11.93;2.35;;;12.30;99.90;;;;;;4940177;28;20596;-53
2022/11/02 09:47:28;;;;;;;9.10;2.55;;;12.30;99.90;;;;;;4941349;28;20627;-52
2022/11/02 09:50:20;;;;;;;;;;;12.30;99.90;;;;;;4941874;28;20287;-54
2022/11/02 09:52:56;;;;;;;7.07;2.40;;;12.30;99.90;;;;;;4941856;28;20697;-53
2022/11/02 09:55:31;;;;;;;10.02;2.40;;;12.30;99.90;;;;;;4942361;28;20065;-51
2022/11/02 09:58:11;;;;;;;8.85;2.33;;;12.30;99.90;;;;;;4940770;28;20226;-53
2022/11/02 10:00:40;;;;;;;10.35;2.80;;;12.30;99.90;;;;;;4940841;28;20298;-54
2022/11/02 10:03:36;;;;;;;9.18;2.75;;;12.40;99.90;;;;;;4941802;28;20420;-55
2022/11/02 10:06:24;;;;;;;10.25;3.33;;;12.40;99.90;;;;;;4942317;28;20449;-59
2022/11/02 10:08:56;;;;;;;11.00;2.45;;;12.40;99.90;;;;;;4939290;28;20051;-56
2022/11/02 10:11:44;;;;;;;12.63;2.88;;;12.50;99.90;;;;;;4940367;28;20057;-58
2022/11/02 10:14:19;;;;;;;8.50;2.57;;;12.50;99.90;;;;;;4942259;28;20043;-55
2022/11/02 10:17:25;;;;;;;8.82;2.42;;;12.50;99.90;;;;;;4937952;28;20105;-56
2022/11/02 10:19:57;;;;;;;9.45;2.70;;;12.50;99.90;;;;;;4941102;28;20250;-56
2022/11/02 10:22:31;;;;;;;11.27;2.78;;;12.60;99.90;;;;;;4941739;28;20334;-56
2022/11/02 10:25:02;;;;;;;10.75;2.05;;;12.60;99.90;;;;;;4940164;28;20123;-52
2022/11/02 10:27:35;;;;;;;6.15;1.88;;;12.50;99.90;;;;;;4941392;28;20881;-52
2022/11/02 10:30:11;;;;;;;9.10;1.83;;;12.50;99.90;;;;;;4940816;28;20051;-54
2022/11/02 10:32:39;;;;;;;6.47;2.05;;;12.50;99.90;;;;;;4939738;28;20051;-53
2022/11/02 10:35:21;;;;;;;10.00;2.13;;;12.50;99.90;;;;;;4937402;28;20184;-54
2022/11/02 10:38:19;;;;;;;18.20;3.42;;;12.50;99.90;;;;;;4938754;28;20612;-53
2022/11/02 10:41:02;;;;;;;9.45;1.98;;;12.50;99.90;;;;;;4935355;28;20558;-55
2022/11/02 10:43:54;;;;;;;8.93;1.90;;;12.50;99.90;;;;;;4946108;28;20054;-55
2022/11/02 10:46:20;;;;;;;7.53;2.10;;;12.50;99.90;;;;;;4943497;28;20047;-56
2022/11/02 10:49:12;;;;;;;5.43;2.15;;;12.50;99.90;;;;;;4942809;28;20337;-55
2022/11/02 10:51:40;;;;;;;8.55;3.05;;;12.50;99.90;;;;;;4943225;28;20490;-55
2022/11/02 10:54:14;;;;;;;12.60;2.63;;;12.50;99.90;;;;;;4941280;28;20047;-56
2022/11/02 10:56:49;;;;;;;11.13;3.53;;;12.60;99.90;;;;;;4942568;28;20042;-55
2022/11/02 10:59:18;;;;;;;8.85;2.08;;;12.60;99.90;;;;;;4932083;28;20090;-56
2022/11/02 11:02:03;;;;;;;10.63;2.78;;;12.60;99.90;;;;;;4942791;28;20042;-56
2022/11/02 11:04:32;;;;;;;9.68;2.60;;;12.70;99.90;;;;;;4943410;28;20501;-54
2022/11/02 11:07:15;;;;;;;7.43;2.38;;;12.70;99.90;;;;;;4941747;28;20155;-55
2022/11/02 11:09:56;;;;;;;8.02;2.85;;;12.70;99.90;;;;;;4945734;28;20429;-56
2022/11/02 11:12:30;;;;;;;10.93;2.53;;;12.80;99.90;;;;;;4944305;28;20043;-55
2022/11/02 11:14:59;;;;;;;11.35;2.60;;;12.80;99.90;;;;;;4959293;28;20552;-56
2022/11/02 11:17:46;;;;;;;13.00;2.00;;;12.80;99.90;;;;;;4944129;28;20057;-54
2022/11/02 11:20:38;;;;;;;10.40;2.35;;;12.80;99.90;;;;;;4942151;28;20524;-55
2022/11/02 11:23:16;;;;;;;7.07;1.95;;;12.70;99.90;;;;;;4943463;28;20130;-55
2022/11/02 11:25:55;;;;;;;8.52;1.40;;;12.70;99.90;;;;;;4940095;28;20042;-53
2022/11/02 11:28:29;;;;;;;10.85;2.65;;;12.70;99.90;;;;;;4942233;28;20050;-54
2022/11/02 11:31:13;;;;;;;10.60;2.88;;;12.70;99.90;;;;;;4942372;28;20154;-56
2022/11/02 11:33:56;;;;;;;8.52;2.13;;;12.70;99.90;;;;;;4940637;28;20117;-55
2022/11/02 11:36:33;;;;;;;9.90;2.30;;;12.70;99.90;;;;;;4940566;28;20533;-54
2022/11/02 11:39:25;;;;;;;10.82;3.15;;;12.70;99.90;;;;;;4947482;28;20145;-54
2022/11/02 11:41:52;;;;;;;10.50;2.10;;;12.70;99.90;;;;;;4941132;28;20075;-54
2022/11/02 11:44:20;;;;;;;;;;;12.60;99.90;;;;;;4974616;28;20232;-54
2022/11/02 11:46:53;;;;;;;8.90;2.90;;;12.60;99.90;;;;;;4943042;28;19925;-54
2022/11/02 11:49:24;;;;;;;6.75;2.33;;;12.60;99.90;;;;;;4943256;28;20054;-53
2022/11/02 11:52:19;;;;;;;6.65;2.75;;;12.60;99.90;;;;;;4942754;28;20066;-56
2022/11/02 11:54:56;;;;;;;8.63;3.00;;;12.60;99.90;;;;;;4942492;28;20898;-51
2022/11/02 11:57:28;;;;;;;16.52;2.55;;;12.60;99.90;;;;;;4944802;28;20050;-53
2022/11/02 11:59:57;;;;;;;7.20;2.20;;;12.70;99.90;;;;;;4943392;28;20061;-53
2022/11/02 12:02:30;;;;;;;11.85;2.20;;;12.70;99.90;;;;;;4943115;28;20050;-51
2022/11/02 12:05:19;;;;;;;13.65;2.60;;;12.70;99.90;;;;;;4945356;28;20113;-53
2022/11/02 12:08:12;;;;;;;9.02;2.33;;;12.60;99.90;;;;;;4941020;28;20342;-55
2022/11/02 12:11:02;;;;;;;6.50;2.25;;;12.70;99.90;;;;;;4945283;28;20067;-57
2022/11/02 12:13:54;;;;;;;10.85;3.65;;;12.70;99.90;;;;;;4941323;28;20051;-56
2022/11/02 12:16:28;;;;;;;11.07;2.78;;;12.70;99.90;;;;;;4942591;28;20307;-55
2022/11/02 12:19:19;;;;;;;11.32;2.80;;;12.70;99.90;;;;;;4943767;28;20046;-60
2022/11/02 12:22:01;;;;;;;7.35;2.88;;;12.70;99.90;;;;;;4942872;28;20122;-56
2022/11/02 12:25:08;;;;;;;7.55;1.63;;;12.80;99.90;;;;;;4941891;28;20055;-55
2022/11/02 12:28:04;;;;;;;5.90;2.13;;;12.80;99.90;;;;;;4942400;28;20126;-57
2022/11/02 12:30:39;;;;;;;10.52;2.33;;;12.90;99.90;;;;;;4943206;28;20461;-54
2022/11/02 12:33:39;;;;;;;11.60;2.20;;;12.90;99.90;;;;;;4942671;28;20057;-55
2022/11/02 12:36:33;;;;;;;13.07;3.05;;;13.00;99.90;;;;;;4940160;28;20079;-56
2022/11/02 12:39:07;;;;;;;6.78;2.65;;;13.10;99.90;;;;;;4942731;28;20067;-56
2022/11/02 12:42:07;;;;;;;7.88;2.17;;;13.10;99.90;;;;;;4940913;28;20043;-55
2022/11/02 12:45:23;;;;;;;7.22;2.42;;;13.10;99.90;;;;;;4944508;28;20052;-54
2022/11/02 12:48:01;;;;;;;6.80;1.70;;;13.20;99.90;;;;;;4938991;28;20067;-55
2022/11/02 12:50:33;;;;;;;7.00;2.05;;;13.30;99.90;;;;;;4941091;28;20059;-55
2022/11/02 12:53:03;;;;;;;8.82;1.90;;;13.40;99.90;;;;;;4941625;28;20056;-55
2022/11/02 12:55:35;;;;;;;12.13;2.22;;;13.50;99.90;;;;;;4942892;28;20339;-56
2022/11/02 12:58:11;;;;;;;11.02;2.47;;;13.50;99.90;;;;;;4940891;28;20169;-54
2022/11/02 13:00:42;;;;;;;9.65;2.20;;;13.60;99.90;;;;;;4940015;28;20050;-53
2022/11/02 13:03:32;;;;;;;8.20;2.22;;;13.70;99.90;;;;;;4940453;28;20047;-55
2022/11/02 13:06:05;;;;;;;6.63;2.45;;;13.70;99.90;;;;;;4939795;28;20051;-53
2022/11/02 13:08:42;;;;;;;9.15;2.67;;;13.90;99.90;;;;;;4941818;28;20047;-53
2022/11/02 13:11:20;;;;;;;8.32;2.28;;;14.00;99.90;;;;;;4939848;28;20050;-57
2022/11/02 13:13:53;;;;;;;7.68;1.92;;;14.20;99.90;;;;;;4940774;28;20608;-54
2022/11/02 13:16:45;;;;;;;9.30;2.30;;;14.40;99.90;;;;;;4943141;28;20047;-52
2022/11/02 13:19:18;;;;;;;8.73;2.20;;;14.60;99.90;;;;;;4940417;28;20615;-56
2022/11/02 13:21:53;;;;;;;10.23;2.08;;;14.80;99.90;;;;;;4956944;28;20568;-57
2022/11/02 13:24:29;;;;;;;8.40;1.88;;;15.10;99.90;;;;;;4939314;28;20051;-55
2022/11/02 13:27:03;;;;;;;7.68;2.13;;;15.30;99.90;;;;;;4938608;28;20057;-59
2022/11/02 13:29:53;;;;;;;7.03;1.77;;;15.50;99.90;;;;;;4938474;28;20542;-63
2022/11/02 13:32:30;;;;;;;10.10;1.88;;;15.70;99.90;;;;;;4940121;28;20464;-59
2022/11/02 13:35:11;;;;;;;4.53;1.90;;;15.80;99.90;;;;;;4941237;28;20134;-56